sensor_id;sensor_type;location;lat;lon;timestamp;P1;durP1;ratioP1;P2;durP2;ratioP2
56331;SDS011;42237;53.340;6.812;2022-10-13T00:01:07;16.42;;;9.00;;
56331;SDS011;42237;53.340;6.812;2022-10-13T00:03:35;17.10;;;8.68;;
56331;SDS011;42237;53.340;6.812;2022-10-13T00:06:03;18.58;;;9.10;;
56331;SDS011;42237;53.340;6.812;2022-10-13T00:08:31;16.27;;;8.27;;
56331;SDS011;42237;53.340;6.812;2022-10-13T00:10:56;17.00;;;8.63;;
56331;SDS011;42237;53.340;6.812;2022-10-13T00:13:24;18.38;;;8.65;;
56331;SDS011;42237;53.340;6.812;2022-10-13T00:15:50;13.65;;;8.98;;
56331;SDS011;42237;53.340;6.812;2022-10-13T00:18:16;16.13;;;9.15;;
56331;SDS011;42237;53.340;6.812;2022-10-13T00:20:46;15.02;;;9.45;;
56331;SDS011;42237;53.340;6.812;2022-10-13T00:23:13;14.25;;;9.20;;
56331;SDS011;42237;53.340;6.812;2022-10-13T00:25:41;17.13;;;8.77;;
56331;SDS011;42237;53.340;6.812;2022-10-13T00:28:08;16.85;;;8.80;;
56331;SDS011;42237;53.340;6.812;2022-10-13T00:30:34;16.15;;;9.95;;
56331;SDS011;42237;53.340;6.812;2022-10-13T00:33:00;16.70;;;8.93;;
56331;SDS011;42237;53.340;6.812;2022-10-13T00:35:26;14.98;;;9.15;;
56331;SDS011;42237;53.340;6.812;2022-10-13T00:37:51;15.90;;;9.13;;
56331;SDS011;42237;53.340;6.812;2022-10-13T00:40:17;19.00;;;9.35;;
56331;SDS011;42237;53.340;6.812;2022-10-13T00:42:43;16.65;;;9.85;;
56331;SDS011;42237;53.340;6.812;2022-10-13T00:45:14;19.88;;;10.07;;
56331;SDS011;42237;53.340;6.812;2022-10-13T00:47:46;19.02;;;9.50;;
56331;SDS011;42237;53.340;6.812;2022-10-13T00:50:17;17.73;;;9.50;;
56331;SDS011;42237;53.340;6.812;2022-10-13T00:52:46;16.65;;;9.45;;
56331;SDS011;42237;53.340;6.812;2022-10-13T00:55:15;18.40;;;9.57;;
56331;SDS011;42237;53.340;6.812;2022-10-13T00:57:44;22.10;;;9.32;;
56331;SDS011;42237;53.340;6.812;2022-10-13T01:00:12;18.38;;;10.32;;
56331;SDS011;42237;53.340;6.812;2022-10-13T01:02:38;17.23;;;9.70;;
56331;SDS011;42237;53.340;6.812;2022-10-13T01:05:05;18.48;;;9.05;;
56331;SDS011;42237;53.340;6.812;2022-10-13T01:07:31;23.60;;;10.20;;
56331;SDS011;42237;53.340;6.812;2022-10-13T01:09:59;15.80;;;9.90;;
56331;SDS011;42237;53.340;6.812;2022-10-13T01:15:12;15.65;;;9.70;;
56331;SDS011;42237;53.340;6.812;2022-10-13T01:28:32;16.73;;;9.48;;
56331;SDS011;42237;53.340;6.812;2022-10-13T01:31:14;16.33;;;9.30;;
56331;SDS011;42237;53.340;6.812;2022-10-13T01:33:52;18.15;;;10.45;;
56331;SDS011;42237;53.340;6.812;2022-10-13T01:39:34;14.75;;;9.80;;
56331;SDS011;42237;53.340;6.812;2022-10-13T01:42:42;17.25;;;10.18;;
56331;SDS011;42237;53.340;6.812;2022-10-13T01:45:09;19.25;;;10.00;;
56331;SDS011;42237;53.340;6.812;2022-10-13T01:47:38;18.73;;;10.38;;
56331;SDS011;42237;53.340;6.812;2022-10-13T01:50:05;17.05;;;10.48;;
56331;SDS011;42237;53.340;6.812;2022-10-13T01:52:33;16.48;;;10.23;;
56331;SDS011;42237;53.340;6.812;2022-10-13T01:55:06;17.83;;;10.80;;
56331;SDS011;42237;53.340;6.812;2022-10-13T01:57:34;18.23;;;10.68;;
56331;SDS011;42237;53.340;6.812;2022-10-13T02:00:06;15.90;;;9.73;;
56331;SDS011;42237;53.340;6.812;2022-10-13T02:05:08;17.40;;;10.57;;
56331;SDS011;42237;53.340;6.812;2022-10-13T02:10:16;21.05;;;10.85;;
56331;SDS011;42237;53.340;6.812;2022-10-13T02:15:30;15.93;;;11.00;;
56331;SDS011;42237;53.340;6.812;2022-10-13T02:18:02;17.48;;;10.35;;
56331;SDS011;42237;53.340;6.812;2022-10-13T02:20:28;21.02;;;11.25;;
56331;SDS011;42237;53.340;6.812;2022-10-13T02:22:56;16.10;;;9.48;;
56331;SDS011;42237;53.340;6.812;2022-10-13T02:25:32;17.70;;;11.05;;
56331;SDS011;42237;53.340;6.812;2022-10-13T02:27:58;22.15;;;11.27;;
56331;SDS011;42237;53.340;6.812;2022-10-13T02:30:27;19.50;;;11.13;;
56331;SDS011;42237;53.340;6.812;2022-10-13T02:32:54;19.88;;;11.65;;
56331;SDS011;42237;53.340;6.812;2022-10-13T02:35:20;20.10;;;11.70;;
56331;SDS011;42237;53.340;6.812;2022-10-13T02:37:46;18.23;;;10.75;;
56331;SDS011;42237;53.340;6.812;2022-10-13T02:40:12;19.65;;;12.05;;
56331;SDS011;42237;53.340;6.812;2022-10-13T02:42:38;18.00;;;11.02;;
56331;SDS011;42237;53.340;6.812;2022-10-13T02:45:03;20.75;;;11.88;;
56331;SDS011;42237;53.340;6.812;2022-10-13T02:47:29;17.05;;;10.60;;
56331;SDS011;42237;53.340;6.812;2022-10-13T02:49:55;19.90;;;10.20;;
56331;SDS011;42237;53.340;6.812;2022-10-13T02:52:21;18.88;;;11.02;;
56331;SDS011;42237;53.340;6.812;2022-10-13T02:54:47;17.42;;;10.80;;
56331;SDS011;42237;53.340;6.812;2022-10-13T02:57:13;16.77;;;10.50;;
56331;SDS011;42237;53.340;6.812;2022-10-13T02:59:38;18.08;;;10.93;;
56331;SDS011;42237;53.340;6.812;2022-10-13T03:02:04;17.85;;;10.93;;
56331;SDS011;42237;53.340;6.812;2022-10-13T03:04:29;17.67;;;10.40;;
56331;SDS011;42237;53.340;6.812;2022-10-13T03:06:55;16.98;;;10.23;;
56331;SDS011;42237;53.340;6.812;2022-10-13T03:09:21;22.20;;;10.82;;
56331;SDS011;42237;53.340;6.812;2022-10-13T03:11:47;18.85;;;11.18;;
56331;SDS011;42237;53.340;6.812;2022-10-13T03:14:12;20.42;;;11.32;;
56331;SDS011;42237;53.340;6.812;2022-10-13T03:16:38;18.67;;;10.27;;
56331;SDS011;42237;53.340;6.812;2022-10-13T03:19:03;17.73;;;10.77;;
56331;SDS011;42237;53.340;6.812;2022-10-13T03:21:29;18.95;;;10.75;;
56331;SDS011;42237;53.340;6.812;2022-10-13T03:23:55;17.88;;;10.45;;
56331;SDS011;42237;53.340;6.812;2022-10-13T03:26:21;17.42;;;10.73;;
56331;SDS011;42237;53.340;6.812;2022-10-13T03:28:50;18.35;;;11.18;;
56331;SDS011;42237;53.340;6.812;2022-10-13T03:31:16;20.67;;;12.05;;
56331;SDS011;42237;53.340;6.812;2022-10-13T03:33:43;14.93;;;10.48;;
56331;SDS011;42237;53.340;6.812;2022-10-13T03:36:09;15.60;;;10.45;;
56331;SDS011;42237;53.340;6.812;2022-10-13T03:38:37;18.58;;;11.18;;
56331;SDS011;42237;53.340;6.812;2022-10-13T03:41:08;18.65;;;11.13;;
56331;SDS011;42237;53.340;6.812;2022-10-13T03:43:35;19.00;;;10.68;;
56331;SDS011;42237;53.340;6.812;2022-10-13T03:46:01;19.70;;;11.30;;
56331;SDS011;42237;53.340;6.812;2022-10-13T03:48:28;19.85;;;11.48;;
56331;SDS011;42237;53.340;6.812;2022-10-13T03:50:54;17.08;;;11.20;;
56331;SDS011;42237;53.340;6.812;2022-10-13T03:53:20;15.48;;;10.70;;
56331;SDS011;42237;53.340;6.812;2022-10-13T03:55:50;17.27;;;10.15;;
56331;SDS011;42237;53.340;6.812;2022-10-13T03:58:17;16.50;;;10.95;;
56331;SDS011;42237;53.340;6.812;2022-10-13T04:00:43;18.80;;;11.23;;
56331;SDS011;42237;53.340;6.812;2022-10-13T04:03:09;20.98;;;11.70;;
56331;SDS011;42237;53.340;6.812;2022-10-13T04:05:35;16.98;;;10.98;;
56331;SDS011;42237;53.340;6.812;2022-10-13T04:08:01;17.98;;;11.13;;
56331;SDS011;42237;53.340;6.812;2022-10-13T04:10:27;19.15;;;11.05;;
56331;SDS011;42237;53.340;6.812;2022-10-13T04:12:53;16.45;;;11.68;;
56331;SDS011;42237;53.340;6.812;2022-10-13T04:15:18;17.52;;;11.70;;
56331;SDS011;42237;53.340;6.812;2022-10-13T04:17:44;19.23;;;11.10;;
56331;SDS011;42237;53.340;6.812;2022-10-13T04:20:10;19.92;;;11.18;;
56331;SDS011;42237;53.340;6.812;2022-10-13T04:22:36;21.58;;;12.32;;
56331;SDS011;42237;53.340;6.812;2022-10-13T04:25:01;19.00;;;12.38;;
56331;SDS011;42237;53.340;6.812;2022-10-13T04:27:27;19.17;;;12.00;;
56331;SDS011;42237;53.340;6.812;2022-10-13T04:29:53;18.33;;;10.77;;
56331;SDS011;42237;53.340;6.812;2022-10-13T04:32:19;19.35;;;12.55;;
56331;SDS011;42237;53.340;6.812;2022-10-13T04:34:44;20.42;;;11.68;;
56331;SDS011;42237;53.340;6.812;2022-10-13T04:37:10;18.23;;;12.65;;
56331;SDS011;42237;53.340;6.812;2022-10-13T04:39:36;19.13;;;13.38;;
56331;SDS011;42237;53.340;6.812;2022-10-13T04:42:02;20.40;;;12.32;;
56331;SDS011;42237;53.340;6.812;2022-10-13T04:44:27;20.20;;;12.95;;
56331;SDS011;42237;53.340;6.812;2022-10-13T04:46:53;22.15;;;13.77;;
56331;SDS011;42237;53.340;6.812;2022-10-13T04:49:19;24.63;;;13.80;;
56331;SDS011;42237;53.340;6.812;2022-10-13T04:51:45;23.60;;;13.93;;
56331;SDS011;42237;53.340;6.812;2022-10-13T04:54:10;19.98;;;13.15;;
56331;SDS011;42237;53.340;6.812;2022-10-13T04:56:36;21.98;;;13.43;;
56331;SDS011;42237;53.340;6.812;2022-10-13T04:59:02;24.08;;;15.07;;
56331;SDS011;42237;53.340;6.812;2022-10-13T05:01:30;20.75;;;14.18;;
56331;SDS011;42237;53.340;6.812;2022-10-13T05:04:00;24.33;;;13.80;;
56331;SDS011;42237;53.340;6.812;2022-10-13T05:06:30;23.25;;;14.13;;
56331;SDS011;42237;53.340;6.812;2022-10-13T05:08:57;21.95;;;14.15;;
56331;SDS011;42237;53.340;6.812;2022-10-13T05:11:27;21.17;;;13.38;;
56331;SDS011;42237;53.340;6.812;2022-10-13T05:13:53;24.55;;;14.70;;
56331;SDS011;42237;53.340;6.812;2022-10-13T05:16:20;21.45;;;14.88;;
56331;SDS011;42237;53.340;6.812;2022-10-13T05:18:47;22.15;;;13.65;;
56331;SDS011;42237;53.340;6.812;2022-10-13T05:21:15;24.00;;;15.10;;
56331;SDS011;42237;53.340;6.812;2022-10-13T05:23:42;24.25;;;14.73;;
56331;SDS011;42237;53.340;6.812;2022-10-13T05:26:10;25.98;;;15.55;;
56331;SDS011;42237;53.340;6.812;2022-10-13T05:28:37;26.60;;;15.73;;
56331;SDS011;42237;53.340;6.812;2022-10-13T05:31:10;22.67;;;14.80;;
56331;SDS011;42237;53.340;6.812;2022-10-13T05:33:39;25.13;;;14.60;;
56331;SDS011;42237;53.340;6.812;2022-10-13T05:36:10;25.27;;;15.68;;
56331;SDS011;42237;53.340;6.812;2022-10-13T05:39:05;23.73;;;14.20;;
56331;SDS011;42237;53.340;6.812;2022-10-13T05:41:34;32.38;;;15.63;;
56331;SDS011;42237;53.340;6.812;2022-10-13T05:44:04;27.02;;;16.40;;
56331;SDS011;42237;53.340;6.812;2022-10-13T05:46:35;24.50;;;15.60;;
56331;SDS011;42237;53.340;6.812;2022-10-13T05:49:01;24.17;;;16.23;;
56331;SDS011;42237;53.340;6.812;2022-10-13T05:51:29;23.73;;;15.05;;
56331;SDS011;42237;53.340;6.812;2022-10-13T05:54:11;20.95;;;14.98;;
56331;SDS011;42237;53.340;6.812;2022-10-13T05:56:46;27.15;;;16.63;;
56331;SDS011;42237;53.340;6.812;2022-10-13T05:59:18;25.45;;;16.15;;
56331;SDS011;42237;53.340;6.812;2022-10-13T06:01:47;28.35;;;16.05;;
56331;SDS011;42237;53.340;6.812;2022-10-13T06:04:17;23.33;;;14.90;;
56331;SDS011;42237;53.340;6.812;2022-10-13T06:06:49;25.38;;;15.80;;
56331;SDS011;42237;53.340;6.812;2022-10-13T06:09:15;24.70;;;14.75;;
56331;SDS011;42237;53.340;6.812;2022-10-13T06:11:42;24.65;;;16.42;;
56331;SDS011;42237;53.340;6.812;2022-10-13T06:14:07;27.75;;;20.73;;
56331;SDS011;42237;53.340;6.812;2022-10-13T06:16:33;28.23;;;17.45;;
56331;SDS011;42237;53.340;6.812;2022-10-13T06:19:00;21.63;;;16.33;;
56331;SDS011;42237;53.340;6.812;2022-10-13T06:21:26;25.27;;;16.15;;
56331;SDS011;42237;53.340;6.812;2022-10-13T06:23:52;29.15;;;16.90;;
56331;SDS011;42237;53.340;6.812;2022-10-13T06:26:17;26.08;;;15.40;;
56331;SDS011;42237;53.340;6.812;2022-10-13T06:28:43;20.63;;;15.07;;
56331;SDS011;42237;53.340;6.812;2022-10-13T06:31:09;26.50;;;16.30;;
56331;SDS011;42237;53.340;6.812;2022-10-13T06:33:35;27.23;;;16.77;;
56331;SDS011;42237;53.340;6.812;2022-10-13T06:36:10;24.38;;;16.02;;
56331;SDS011;42237;53.340;6.812;2022-10-13T06:38:35;23.25;;;15.32;;
56331;SDS011;42237;53.340;6.812;2022-10-13T06:41:02;29.55;;;16.83;;
56331;SDS011;42237;53.340;6.812;2022-10-13T06:43:28;27.50;;;16.15;;
56331;SDS011;42237;53.340;6.812;2022-10-13T06:46:00;28.33;;;16.35;;
56331;SDS011;42237;53.340;6.812;2022-10-13T06:48:26;25.70;;;16.77;;
56331;SDS011;42237;53.340;6.812;2022-10-13T06:50:58;29.13;;;17.67;;
56331;SDS011;42237;53.340;6.812;2022-10-13T06:53:25;31.08;;;17.00;;
56331;SDS011;42237;53.340;6.812;2022-10-13T06:55:54;29.08;;;18.17;;
56331;SDS011;42237;53.340;6.812;2022-10-13T06:58:20;26.25;;;16.40;;
56331;SDS011;42237;53.340;6.812;2022-10-13T07:00:46;26.73;;;17.63;;
56331;SDS011;42237;53.340;6.812;2022-10-13T07:03:12;34.08;;;18.60;;
56331;SDS011;42237;53.340;6.812;2022-10-13T07:05:40;32.13;;;19.55;;
56331;SDS011;42237;53.340;6.812;2022-10-13T07:08:05;26.60;;;17.23;;
56331;SDS011;42237;53.340;6.812;2022-10-13T07:10:31;29.98;;;16.85;;
56331;SDS011;42237;53.340;6.812;2022-10-13T07:12:56;27.40;;;17.70;;
56331;SDS011;42237;53.340;6.812;2022-10-13T07:15:22;29.35;;;18.45;;
56331;SDS011;42237;53.340;6.812;2022-10-13T07:17:49;28.30;;;17.80;;
56331;SDS011;42237;53.340;6.812;2022-10-13T07:20:18;30.65;;;19.17;;
56331;SDS011;42237;53.340;6.812;2022-10-13T07:22:51;28.25;;;18.30;;
56331;SDS011;42237;53.340;6.812;2022-10-13T07:25:17;31.98;;;20.02;;
56331;SDS011;42237;53.340;6.812;2022-10-13T07:27:43;30.85;;;18.25;;
56331;SDS011;42237;53.340;6.812;2022-10-13T07:30:09;31.80;;;18.85;;
56331;SDS011;42237;53.340;6.812;2022-10-13T07:32:36;30.83;;;19.63;;
56331;SDS011;42237;53.340;6.812;2022-10-13T07:35:03;28.30;;;20.13;;
56331;SDS011;42237;53.340;6.812;2022-10-13T07:37:29;35.13;;;20.50;;
56331;SDS011;42237;53.340;6.812;2022-10-13T07:39:55;34.40;;;19.55;;
56331;SDS011;42237;53.340;6.812;2022-10-13T07:42:20;30.17;;;20.40;;
56331;SDS011;42237;53.340;6.812;2022-10-13T07:44:46;32.92;;;20.13;;
56331;SDS011;42237;53.340;6.812;2022-10-13T07:47:12;31.63;;;19.77;;
56331;SDS011;42237;53.340;6.812;2022-10-13T07:49:37;29.13;;;18.50;;
56331;SDS011;42237;53.340;6.812;2022-10-13T07:52:03;29.25;;;19.35;;
56331;SDS011;42237;53.340;6.812;2022-10-13T07:54:29;27.23;;;18.58;;
56331;SDS011;42237;53.340;6.812;2022-10-13T07:56:54;29.25;;;17.85;;
56331;SDS011;42237;53.340;6.812;2022-10-13T07:59:20;27.38;;;17.98;;
56331;SDS011;42237;53.340;6.812;2022-10-13T08:01:46;27.77;;;17.35;;
56331;SDS011;42237;53.340;6.812;2022-10-13T08:04:12;26.77;;;18.55;;
56331;SDS011;42237;53.340;6.812;2022-10-13T08:06:54;27.15;;;16.95;;
56331;SDS011;42237;53.340;6.812;2022-10-13T08:09:23;29.50;;;16.65;;
56331;SDS011;42237;53.340;6.812;2022-10-13T08:11:52;26.83;;;16.65;;
56331;SDS011;42237;53.340;6.812;2022-10-13T08:14:19;26.30;;;16.70;;
56331;SDS011;42237;53.340;6.812;2022-10-13T08:16:47;25.95;;;16.67;;
56331;SDS011;42237;53.340;6.812;2022-10-13T08:19:16;23.00;;;15.57;;
56331;SDS011;42237;53.340;6.812;2022-10-13T08:21:46;25.52;;;17.52;;
56331;SDS011;42237;53.340;6.812;2022-10-13T08:24:18;32.80;;;17.63;;
56331;SDS011;42237;53.340;6.812;2022-10-13T08:26:46;25.25;;;17.23;;
56331;SDS011;42237;53.340;6.812;2022-10-13T08:29:15;31.67;;;17.30;;
56331;SDS011;42237;53.340;6.812;2022-10-13T08:31:49;27.05;;;17.23;;
56331;SDS011;42237;53.340;6.812;2022-10-13T08:34:15;27.40;;;17.38;;
56331;SDS011;42237;53.340;6.812;2022-10-13T08:36:44;25.70;;;16.42;;
56331;SDS011;42237;53.340;6.812;2022-10-13T08:39:10;25.38;;;16.60;;
56331;SDS011;42237;53.340;6.812;2022-10-13T08:41:37;24.98;;;16.13;;
56331;SDS011;42237;53.340;6.812;2022-10-13T08:44:06;20.88;;;14.88;;
56331;SDS011;42237;53.340;6.812;2022-10-13T08:46:42;22.92;;;15.82;;
56331;SDS011;42237;53.340;6.812;2022-10-13T08:49:22;25.25;;;15.65;;
56331;SDS011;42237;53.340;6.812;2022-10-13T08:51:48;22.95;;;15.05;;
56331;SDS011;42237;53.340;6.812;2022-10-13T08:54:18;22.10;;;15.30;;
56331;SDS011;42237;53.340;6.812;2022-10-13T08:56:46;27.05;;;15.45;;
56331;SDS011;42237;53.340;6.812;2022-10-13T08:59:15;24.48;;;17.02;;
56331;SDS011;42237;53.340;6.812;2022-10-13T09:01:44;25.67;;;15.40;;
56331;SDS011;42237;53.340;6.812;2022-10-13T09:04:23;25.20;;;16.58;;
56331;SDS011;42237;53.340;6.812;2022-10-13T09:10:16;24.23;;;15.80;;
56331;SDS011;42237;53.340;6.812;2022-10-13T09:12:45;23.80;;;17.27;;
56331;SDS011;42237;53.340;6.812;2022-10-13T09:15:21;24.60;;;17.20;;
56331;SDS011;42237;53.340;6.812;2022-10-13T09:18:06;24.33;;;15.88;;
56331;SDS011;42237;53.340;6.812;2022-10-13T09:20:36;24.05;;;16.02;;
56331;SDS011;42237;53.340;6.812;2022-10-13T09:23:21;26.60;;;17.30;;
56331;SDS011;42237;53.340;6.812;2022-10-13T09:25:54;22.77;;;16.27;;
56331;SDS011;42237;53.340;6.812;2022-10-13T09:28:36;25.00;;;16.42;;
56331;SDS011;42237;53.340;6.812;2022-10-13T09:33:59;24.25;;;17.00;;
56331;SDS011;42237;53.340;6.812;2022-10-13T09:36:34;25.98;;;17.02;;
56331;SDS011;42237;53.340;6.812;2022-10-13T09:39:06;24.33;;;16.73;;
56331;SDS011;42237;53.340;6.812;2022-10-13T09:41:36;24.35;;;14.95;;
56331;SDS011;42237;53.340;6.812;2022-10-13T09:44:13;26.85;;;17.05;;
56331;SDS011;42237;53.340;6.812;2022-10-13T09:46:51;24.42;;;16.95;;
56331;SDS011;42237;53.340;6.812;2022-10-13T09:52:00;24.23;;;16.05;;
56331;SDS011;42237;53.340;6.812;2022-10-13T09:54:36;31.52;;;18.65;;
56331;SDS011;42237;53.340;6.812;2022-10-13T09:57:04;29.27;;;17.67;;
56331;SDS011;42237;53.340;6.812;2022-10-13T10:02:19;31.65;;;17.58;;
56331;SDS011;42237;53.340;6.812;2022-10-13T10:05:05;23.95;;;17.77;;
56331;SDS011;42237;53.340;6.812;2022-10-13T10:07:55;30.35;;;17.45;;
56331;SDS011;42237;53.340;6.812;2022-10-13T10:10:29;28.30;;;18.30;;
56331;SDS011;42237;53.340;6.812;2022-10-13T10:12:58;28.30;;;18.20;;
56331;SDS011;42237;53.340;6.812;2022-10-13T10:15:27;28.90;;;18.13;;
56331;SDS011;42237;53.340;6.812;2022-10-13T10:18:02;26.95;;;18.63;;
56331;SDS011;42237;53.340;6.812;2022-10-13T10:21:17;29.35;;;18.13;;
56331;SDS011;42237;53.340;6.812;2022-10-13T10:26:09;28.08;;;18.92;;
56331;SDS011;42237;53.340;6.812;2022-10-13T10:31:18;24.83;;;16.20;;
56331;SDS011;42237;53.340;6.812;2022-10-13T10:42:51;27.58;;;17.45;;
56331;SDS011;42237;53.340;6.812;2022-10-13T10:48:07;23.92;;;17.42;;
56331;SDS011;42237;53.340;6.812;2022-10-13T10:50:36;26.48;;;17.85;;
56331;SDS011;42237;53.340;6.812;2022-10-13T11:04:00;25.75;;;17.67;;
56331;SDS011;42237;53.340;6.812;2022-10-13T11:06:35;21.65;;;15.48;;
56331;SDS011;42237;53.340;6.812;2022-10-13T11:09:03;22.75;;;15.05;;
56331;SDS011;42237;53.340;6.812;2022-10-13T11:11:31;22.75;;;15.50;;
56331;SDS011;42237;53.340;6.812;2022-10-13T11:18:56;23.60;;;15.95;;
56331;SDS011;42237;53.340;6.812;2022-10-13T11:37:24;21.70;;;14.68;;
56331;SDS011;42237;53.340;6.812;2022-10-13T11:40:26;23.25;;;14.82;;
56331;SDS011;42237;53.340;6.812;2022-10-13T11:56:42;19.02;;;13.88;;
56331;SDS011;42237;53.340;6.812;2022-10-13T11:59:32;19.50;;;13.73;;
56331;SDS011;42237;53.340;6.812;2022-10-13T12:02:05;17.20;;;13.20;;
56331;SDS011;42237;53.340;6.812;2022-10-13T12:04:36;18.95;;;14.07;;
56331;SDS011;42237;53.340;6.812;2022-10-13T12:07:03;18.20;;;13.35;;
56331;SDS011;42237;53.340;6.812;2022-10-13T12:09:32;20.15;;;14.20;;
56331;SDS011;42237;53.340;6.812;2022-10-13T12:12:21;18.45;;;14.30;;
56331;SDS011;42237;53.340;6.812;2022-10-13T12:14:49;20.35;;;14.05;;
56331;SDS011;42237;53.340;6.812;2022-10-13T12:19:55;19.92;;;13.95;;
56331;SDS011;42237;53.340;6.812;2022-10-13T12:22:22;18.77;;;14.38;;
56331;SDS011;42237;53.340;6.812;2022-10-13T12:27:24;21.45;;;14.13;;
56331;SDS011;42237;53.340;6.812;2022-10-13T12:29:50;17.02;;;12.70;;
56331;SDS011;42237;53.340;6.812;2022-10-13T12:32:18;17.92;;;13.10;;
56331;SDS011;42237;53.340;6.812;2022-10-13T12:34:44;18.08;;;14.32;;
56331;SDS011;42237;53.340;6.812;2022-10-13T12:37:12;17.23;;;13.15;;
56331;SDS011;42237;53.340;6.812;2022-10-13T12:39:53;18.75;;;13.00;;
56331;SDS011;42237;53.340;6.812;2022-10-13T12:42:21;16.73;;;13.25;;
56331;SDS011;42237;53.340;6.812;2022-10-13T12:44:52;17.33;;;13.77;;
56331;SDS011;42237;53.340;6.812;2022-10-13T12:47:37;18.70;;;13.60;;
56331;SDS011;42237;53.340;6.812;2022-10-13T12:52:53;16.27;;;13.07;;
56331;SDS011;42237;53.340;6.812;2022-10-13T12:55:21;16.77;;;12.88;;
56331;SDS011;42237;53.340;6.812;2022-10-13T12:57:50;17.35;;;13.13;;
56331;SDS011;42237;53.340;6.812;2022-10-13T13:00:26;18.75;;;13.98;;
56331;SDS011;42237;53.340;6.812;2022-10-13T13:05:33;22.30;;;12.63;;
56331;SDS011;42237;53.340;6.812;2022-10-13T13:10:54;17.85;;;12.27;;
56331;SDS011;42237;53.340;6.812;2022-10-13T13:13:21;15.90;;;12.43;;
56331;SDS011;42237;53.340;6.812;2022-10-13T13:15:48;15.88;;;12.40;;
56331;SDS011;42237;53.340;6.812;2022-10-13T13:20:55;17.55;;;12.48;;
56331;SDS011;42237;53.340;6.812;2022-10-13T13:23:22;16.08;;;12.43;;
56331;SDS011;42237;53.340;6.812;2022-10-13T13:28:44;16.92;;;12.63;;
56331;SDS011;42237;53.340;6.812;2022-10-13T13:31:12;17.02;;;12.75;;
56331;SDS011;42237;53.340;6.812;2022-10-13T13:33:39;19.40;;;13.00;;
56331;SDS011;42237;53.340;6.812;2022-10-13T13:38:44;16.75;;;13.13;;
56331;SDS011;42237;53.340;6.812;2022-10-13T13:41:10;20.10;;;13.45;;
56331;SDS011;42237;53.340;6.812;2022-10-13T13:43:36;18.17;;;12.63;;
56331;SDS011;42237;53.340;6.812;2022-10-13T13:46:03;17.15;;;12.77;;
56331;SDS011;42237;53.340;6.812;2022-10-13T13:48:30;17.30;;;12.82;;
56331;SDS011;42237;53.340;6.812;2022-10-13T13:50:56;17.20;;;13.05;;
56331;SDS011;42237;53.340;6.812;2022-10-13T13:53:22;17.75;;;13.23;;
56331;SDS011;42237;53.340;6.812;2022-10-13T13:55:48;17.58;;;13.38;;
56331;SDS011;42237;53.340;6.812;2022-10-13T13:58:13;18.42;;;12.63;;
56331;SDS011;42237;53.340;6.812;2022-10-13T14:00:39;16.90;;;12.38;;
56331;SDS011;42237;53.340;6.812;2022-10-13T14:03:05;18.40;;;12.18;;
56331;SDS011;42237;53.340;6.812;2022-10-13T14:05:30;16.73;;;12.50;;
56331;SDS011;42237;53.340;6.812;2022-10-13T14:07:56;18.17;;;13.40;;
56331;SDS011;42237;53.340;6.812;2022-10-13T14:10:22;19.50;;;13.32;;
56331;SDS011;42237;53.340;6.812;2022-10-13T14:12:49;17.83;;;12.35;;
56331;SDS011;42237;53.340;6.812;2022-10-13T14:15:15;17.60;;;13.20;;
56331;SDS011;42237;53.340;6.812;2022-10-13T14:17:41;15.57;;;11.88;;
56331;SDS011;42237;53.340;6.812;2022-10-13T14:20:07;19.25;;;13.15;;
56331;SDS011;42237;53.340;6.812;2022-10-13T14:22:35;17.50;;;13.32;;
56331;SDS011;42237;53.340;6.812;2022-10-13T14:25:02;17.92;;;13.45;;
56331;SDS011;42237;53.340;6.812;2022-10-13T14:27:28;19.98;;;14.30;;
56331;SDS011;42237;53.340;6.812;2022-10-13T14:29:55;22.95;;;14.40;;
56331;SDS011;42237;53.340;6.812;2022-10-13T14:32:20;19.75;;;13.88;;
56331;SDS011;42237;53.340;6.812;2022-10-13T14:34:46;21.33;;;13.35;;
56331;SDS011;42237;53.340;6.812;2022-10-13T14:37:12;26.27;;;17.52;;
56331;SDS011;42237;53.340;6.812;2022-10-13T14:39:38;21.52;;;13.68;;
56331;SDS011;42237;53.340;6.812;2022-10-13T14:42:03;18.33;;;13.73;;
56331;SDS011;42237;53.340;6.812;2022-10-13T14:44:29;19.75;;;14.43;;
56331;SDS011;42237;53.340;6.812;2022-10-13T14:46:55;18.60;;;13.63;;
56331;SDS011;42237;53.340;6.812;2022-10-13T14:49:20;18.33;;;13.57;;
56331;SDS011;42237;53.340;6.812;2022-10-13T14:51:46;18.50;;;13.55;;
56331;SDS011;42237;53.340;6.812;2022-10-13T14:54:12;17.98;;;14.05;;
56331;SDS011;42237;53.340;6.812;2022-10-13T14:56:37;19.92;;;12.93;;
56331;SDS011;42237;53.340;6.812;2022-10-13T14:59:04;21.95;;;14.02;;
56331;SDS011;42237;53.340;6.812;2022-10-13T15:01:31;20.38;;;14.30;;
56331;SDS011;42237;53.340;6.812;2022-10-13T15:03:58;20.15;;;13.95;;
56331;SDS011;42237;53.340;6.812;2022-10-13T15:06:24;20.98;;;14.38;;
56331;SDS011;42237;53.340;6.812;2022-10-13T15:08:50;19.73;;;13.50;;
56331;SDS011;42237;53.340;6.812;2022-10-13T15:11:17;17.33;;;13.63;;
56331;SDS011;42237;53.340;6.812;2022-10-13T15:13:44;17.55;;;13.52;;
56331;SDS011;42237;53.340;6.812;2022-10-13T15:16:14;19.75;;;14.35;;
56331;SDS011;42237;53.340;6.812;2022-10-13T15:18:42;17.88;;;13.90;;
56331;SDS011;42237;53.340;6.812;2022-10-13T15:21:07;21.27;;;14.57;;
56331;SDS011;42237;53.340;6.812;2022-10-13T15:23:33;18.52;;;12.43;;
56331;SDS011;42237;53.340;6.812;2022-10-13T15:26:00;18.20;;;13.38;;
56331;SDS011;42237;53.340;6.812;2022-10-13T15:28:33;18.73;;;13.05;;
56331;SDS011;42237;53.340;6.812;2022-10-13T15:31:04;13.52;;;10.13;;
56331;SDS011;42237;53.340;6.812;2022-10-13T15:33:30;12.90;;;8.48;;
56331;SDS011;42237;53.340;6.812;2022-10-13T15:35:57;11.65;;;8.20;;
56331;SDS011;42237;53.340;6.812;2022-10-13T15:38:23;10.15;;;4.82;;
56331;SDS011;42237;53.340;6.812;2022-10-13T15:40:49;6.53;;;2.92;;
56331;SDS011;42237;53.340;6.812;2022-10-13T15:43:15;5.97;;;2.88;;
56331;SDS011;42237;53.340;6.812;2022-10-13T15:45:41;8.57;;;3.75;;
56331;SDS011;42237;53.340;6.812;2022-10-13T15:48:08;4.28;;;2.40;;
56331;SDS011;42237;53.340;6.812;2022-10-13T15:50:38;5.57;;;1.90;;
56331;SDS011;42237;53.340;6.812;2022-10-13T15:53:07;4.95;;;1.65;;
56331;SDS011;42237;53.340;6.812;2022-10-13T15:55:32;2.70;;;1.20;;
56331;SDS011;42237;53.340;6.812;2022-10-13T15:57:58;4.35;;;1.50;;
56331;SDS011;42237;53.340;6.812;2022-10-13T16:00:24;10.70;;;4.50;;
56331;SDS011;42237;53.340;6.812;2022-10-13T16:02:49;14.32;;;8.00;;
56331;SDS011;42237;53.340;6.812;2022-10-13T16:05:16;9.30;;;4.70;;
56331;SDS011;42237;53.340;6.812;2022-10-13T16:07:42;5.95;;;2.10;;
56331;SDS011;42237;53.340;6.812;2022-10-13T16:10:09;5.93;;;1.85;;
56331;SDS011;42237;53.340;6.812;2022-10-13T16:12:36;4.18;;;1.20;;
56331;SDS011;42237;53.340;6.812;2022-10-13T16:15:03;2.58;;;1.35;;
56331;SDS011;42237;53.340;6.812;2022-10-13T16:17:29;7.88;;;1.55;;
56331;SDS011;42237;53.340;6.812;2022-10-13T16:19:55;3.80;;;1.48;;
56331;SDS011;42237;53.340;6.812;2022-10-13T16:22:21;3.72;;;1.40;;
56331;SDS011;42237;53.340;6.812;2022-10-13T16:24:47;2.97;;;1.13;;
56331;SDS011;42237;53.340;6.812;2022-10-13T16:27:12;5.60;;;1.73;;
56331;SDS011;42237;53.340;6.812;2022-10-13T16:29:39;7.88;;;5.10;;
56331;SDS011;42237;53.340;6.812;2022-10-13T16:32:04;9.18;;;5.57;;